Minneapolis, Minnesota
Traffic Map
Current Weather Conditions
Minneapolis, Minnesota
Overcast
Overcast
-9°
Feels Like: -17°
Wind Chill: -17° Ceiling: 1900
Heat Index: -9° Visibility: 8mi
Dew Point: -12° Wind: 14mph
Humidity: 77% Direction: 230° (SW)
Pressure: 30.24in Gusts: 20mph
Raw Report DataKMSP 011053Z 23012G17KT 8SM OVC019 M09/M12 A3024 RMK AO2 SLP256 T10891122
Traffic Incident Summary
Active as of:
Severity:
Category:
InformationThere was an issue retrieving the traffic information for this location. Please try a different location or try again shortly.
Advertisements
Track Severe Weather on mobile